Time,TemperatureF,DewpointF,PressureIn,WindDirection,WindDirectionDegrees,WindSpeedMPH,WindSpeedGustMPH,Humidity,HourlyPrecipIn,Conditions,Clouds,dailyrainin,SoftwareType,DateUTC
2013-07-21 00:02:00,69.0,63.0,29.93,North,355,0.0,0.0,80,0.00,,,0.00,,2013-07-21 05:02:00,
2013-07-21 00:32:00,68.0,62.0,29.92,North,355,0.0,0.0,82,0.00,,,0.00,,2013-07-21 05:32:00,
2013-07-21 00:42:00,68.0,63.0,29.92,North,355,0.0,0.0,83,0.00,,,0.00,,2013-07-21 05:42:00,
2013-07-21 00:52:00,67.0,62.0,29.92,North,355,0.0,0.0,83,0.00,,,0.00,,2013-07-21 05:52:00,
2013-07-21 01:01:00,67.0,62.0,29.92,North,355,0.0,0.0,83,0.00,,,0.00,,2013-07-21 06:01:00,
2013-07-21 01:11:00,67.0,62.0,29.91,North,355,0.0,0.0,84,0.00,,,0.00,,2013-07-21 06:11:00,
2013-07-21 01:22:00,67.0,62.0,29.91,North,355,0.0,0.0,84,0.00,,,0.00,,2013-07-21 06:22:00,
2013-07-21 01:32:00,66.0,61.0,29.92,North,355,0.0,0.0,84,0.00,,,0.00,,2013-07-21 06:32:00,
2013-07-21 01:52:00,66.0,61.0,29.92,North,355,0.0,0.0,85,0.00,,,0.00,,2013-07-21 06:52:00,
2013-07-21 02:01:00,66.0,61.0,29.92,North,355,0.0,0.0,85,0.00,,,0.00,,2013-07-21 07:01:00,
2013-07-21 02:11:00,66.0,61.0,29.93,North,355,0.0,0.0,85,0.00,,,0.00,,2013-07-21 07:11:00,
2013-07-21 02:22:00,66.0,61.0,29.93,North,355,0.0,0.0,85,0.00,,,0.00,,2013-07-21 07:22:00,
2013-07-21 02:32:00,66.0,62.0,29.93,North,355,0.0,0.0,86,0.00,,,0.00,,2013-07-21 07:32:00,
2013-07-21 02:43:00,65.0,60.0,29.92,North,355,0.0,0.0,85,0.00,,,0.00,,2013-07-21 07:43:00,
2013-07-21 02:52:00,65.0,61.0,29.91,North,355,0.0,0.0,86,0.00,,,0.00,,2013-07-21 07:52:00,
2013-07-21 03:01:00,65.0,61.0,29.91,North,355,0.0,0.0,86,0.00,,,0.00,,2013-07-21 08:01:00,
2013-07-21 03:11:00,65.0,61.0,29.91,North,355,0.0,0.0,86,0.00,,,0.00,,2013-07-21 08:11:00,
2013-07-21 03:22:00,65.0,61.0,29.91,North,355,0.0,0.0,86,0.00,,,0.00,,2013-07-21 08:22:00,
2013-07-21 03:33:00,65.0,61.0,29.91,North,355,0.0,0.0,86,0.00,,,0.00,,2013-07-21 08:33:00,
2013-07-21 03:43:00,65.0,61.0,29.91,North,355,0.0,0.0,87,0.00,,,0.00,,2013-07-21 08:43:00,
2013-07-21 03:52:00,65.0,61.0,29.91,North,355,0.0,0.0,87,0.00,,,0.00,,2013-07-21 08:52:00,
2013-07-21 04:02:00,65.0,61.0,29.91,North,355,0.0,0.0,87,0.00,,,0.00,,2013-07-21 09:02:00,
2013-07-21 04:12:00,65.0,61.0,29.90,North,355,0.0,0.0,87,0.00,,,0.00,,2013-07-21 09:12:00,
2013-07-21 04:22:00,65.0,61.0,29.90,North,355,0.0,0.0,87,0.00,,,0.00,,2013-07-21 09:22:00,
2013-07-21 04:32:00,65.0,61.0,29.91,North,355,0.0,0.0,87,0.00,,,0.00,,2013-07-21 09:32:00,
2013-07-21 04:42:00,65.0,61.0,29.91,North,355,0.0,0.0,87,0.00,,,0.00,,2013-07-21 09:42:00,
2013-07-21 04:52:00,65.0,61.0,29.91,North,355,0.0,0.0,87,0.00,,,0.00,,2013-07-21 09:52:00,
2013-07-21 05:02:00,65.0,61.0,29.90,North,355,0.0,0.0,87,0.00,,,0.00,,2013-07-21 10:02:00,
2013-07-21 05:11:00,65.0,61.0,29.90,North,355,0.0,0.0,87,0.00,,,0.00,,2013-07-21 10:11:00,
2013-07-21 05:22:00,65.0,61.0,29.90,North,355,0.0,0.0,87,0.00,,,0.00,,2013-07-21 10:22:00,
2013-07-21 05:32:00,64.0,60.0,29.90,North,355,0.0,0.0,87,0.00,,,0.00,,2013-07-21 10:32:00,
2013-07-21 05:43:00,64.0,60.0,29.91,North,355,0.0,0.0,87,0.00,,,0.00,,2013-07-21 10:43:00,
2013-07-21 05:52:00,64.0,60.0,29.90,North,355,0.0,0.0,87,0.00,,,0.00,,2013-07-21 10:52:00,
2013-07-21 06:02:00,64.0,60.0,29.91,North,355,0.0,0.0,87,0.00,,,0.00,,2013-07-21 11:02:00,
2013-07-21 06:12:00,64.0,60.0,29.91,North,355,0.0,0.0,88,0.00,,,0.00,,2013-07-21 11:12:00,
2013-07-21 06:22:00,64.0,60.0,29.91,North,355,0.0,0.0,88,0.00,,,0.00,,2013-07-21 11:22:00,
2013-07-21 06:33:00,64.0,60.0,29.91,North,355,0.0,0.0,88,0.00,,,0.00,,2013-07-21 11:33:00,
2013-07-21 06:43:00,65.0,61.0,29.91,North,355,0.0,0.0,88,0.00,,,0.00,,2013-07-21 11:43:00,
2013-07-21 06:52:00,65.0,61.0,29.91,North,355,0.0,0.0,88,0.00,,,0.00,,2013-07-21 11:52:00,
2013-07-21 07:01:00,65.0,61.0,29.92,North,355,0.0,0.0,88,0.00,,,0.00,,2013-07-21 12:01:00,
2013-07-21 07:11:00,66.0,63.0,29.91,North,355,0.0,0.0,89,0.00,,,0.00,,2013-07-21 12:11:00,
2013-07-21 07:22:00,66.0,63.0,29.91,North,355,0.0,0.0,89,0.00,,,0.00,,2013-07-21 12:22:00,
2013-07-21 07:32:00,67.0,64.0,29.92,North,355,0.0,0.0,89,0.00,,,0.00,,2013-07-21 12:32:00,
2013-07-21 07:43:00,67.0,64.0,29.92,North,355,0.0,1.0,89,0.00,,,0.00,,2013-07-21 12:43:00,
2013-07-21 07:53:00,68.0,65.0,29.92,North,355,0.0,0.0,89,0.00,,,0.00,,2013-07-21 12:53:00,
2013-07-21 08:01:00,68.0,65.0,29.93,North,355,0.0,1.0,89,0.00,,,0.00,,2013-07-21 13:01:00,
2013-07-21 08:12:00,69.0,66.0,29.93,North,355,0.0,0.0,89,0.00,,,0.00,,2013-07-21 13:12:00,
2013-07-21 08:22:00,70.0,66.0,29.93,North,355,0.0,0.0,88,0.00,,,0.00,,2013-07-21 13:22:00,
2013-07-21 08:32:00,71.0,67.0,29.93,North,355,0.0,0.0,88,0.00,,,0.00,,2013-07-21 13:32:00,
2013-07-21 08:42:00,72.0,68.0,29.92,North,360,0.0,1.0,86,0.00,,,0.00,,2013-07-21 13:42:00,
2013-07-21 08:52:00,72.0,67.0,29.93,NE,55,0.0,0.0,84,0.00,,,0.00,,2013-07-21 13:52:00,
2013-07-21 09:01:00,73.0,68.0,29.93,NE,55,0.0,1.0,83,0.00,,,0.00,,2013-07-21 14:01:00,
2013-07-21 09:12:00,74.0,68.0,29.92,NE,55,0.0,1.0,81,0.00,,,0.00,,2013-07-21 14:12:00,
2013-07-21 09:22:00,74.0,67.0,29.93,ENE,59,0.0,3.0,79,0.00,,,0.00,,2013-07-21 14:22:00,
2013-07-21 09:32:00,75.0,68.0,29.93,ENE,59,0.0,2.0,79,0.00,,,0.00,,2013-07-21 14:32:00,
2013-07-21 09:43:00,76.0,69.0,29.92,ENE,59,0.0,1.0,78,0.00,,,0.00,,2013-07-21 14:43:00,
2013-07-21 09:53:00,77.0,69.0,29.92,ENE,62,0.0,1.0,76,0.00,,,0.00,,2013-07-21 14:53:00,
2013-07-21 10:02:00,78.0,69.0,29.92,ENE,63,0.0,1.0,75,0.00,,,0.00,,2013-07-21 15:02:00,
2013-07-21 10:11:00,79.0,69.0,29.92,ENE,63,0.0,1.0,72,0.00,,,0.00,,2013-07-21 15:11:00,
2013-07-21 10:22:00,80.0,68.0,29.93,ESE,114,1.0,4.0,66,0.00,,,0.00,,2013-07-21 15:22:00,
2013-07-21 10:32:00,80.0,69.0,29.93,ESE,114,0.0,1.0,70,0.00,,,0.00,,2013-07-21 15:32:00,
2013-07-21 10:43:00,81.0,69.0,29.93,ESE,114,0.0,3.0,68,0.00,,,0.00,,2013-07-21 15:43:00,
2013-07-21 10:53:00,82.0,70.0,29.93,ESE,117,0.0,3.0,67,0.00,,,0.00,,2013-07-21 15:53:00,
2013-07-21 11:01:00,82.0,70.0,29.92,ESE,118,0.0,1.0,67,0.00,,,0.00,,2013-07-21 16:01:00,
2013-07-21 11:11:00,82.0,69.0,29.92,ESE,111,0.0,2.0,66,0.00,,,0.00,,2013-07-21 16:11:00,
2013-07-21 11:22:00,82.0,69.0,29.92,ESE,122,0.0,1.0,66,0.00,,,0.00,,2013-07-21 16:22:00,
2013-07-21 11:32:00,83.0,71.0,29.92,ESE,117,0.0,3.0,68,0.00,,,0.00,,2013-07-21 16:32:00,
2013-07-21 11:43:00,84.0,70.0,29.92,ESE,113,1.0,5.0,64,0.00,,,0.00,,2013-07-21 16:43:00,
2013-07-21 11:52:00,85.0,70.0,29.92,SE,132,0.0,3.0,62,0.00,,,0.00,,2013-07-21 16:52:00,
2013-07-21 12:02:00,85.0,70.0,29.92,SE,132,0.0,3.0,62,0.00,,,0.00,,2013-07-21 17:02:00,
2013-07-21 12:11:00,85.0,70.0,29.92,East,94,0.0,3.0,61,0.00,,,0.00,,2013-07-21 17:11:00,
2013-07-21 12:22:00,85.0,69.0,29.92,South,178,0.0,5.0,58,0.00,,,0.00,,2013-07-21 17:22:00,
2013-07-21 12:33:00,85.0,69.0,29.91,ESE,108,1.0,4.0,59,0.00,,,0.00,,2013-07-21 17:33:00,
2013-07-21 12:43:00,84.0,70.0,29.91,ESE,108,0.0,1.0,63,0.00,,,0.00,,2013-07-21 17:43:00,
2013-07-21 12:53:00,84.0,68.0,29.91,ESE,116,0.0,3.0,59,0.00,,,0.00,,2013-07-21 17:53:00,
2013-07-21 13:01:00,84.0,69.0,29.91,ESE,105,0.0,2.0,60,0.00,,,0.00,,2013-07-21 18:01:00,
2013-07-21 13:11:00,84.0,68.0,29.91,ESE,117,0.0,3.0,58,0.00,,,0.00,,2013-07-21 18:11:00,
2013-07-21 13:22:00,84.0,68.0,29.91,ESE,117,0.0,2.0,59,0.00,,,0.00,,2013-07-21 18:22:00,
2013-07-21 13:32:00,84.0,68.0,29.90,WNW,296,0.0,5.0,59,0.00,,,0.00,,2013-07-21 18:32:00,
2013-07-21 13:43:00,84.0,68.0,29.90,SE,130,0.0,3.0,58,0.00,,,0.00,,2013-07-21 18:43:00,
2013-07-21 13:52:00,84.0,68.0,29.90,ESE,115,0.0,3.0,58,0.00,,,0.00,,2013-07-21 18:52:00,
2013-07-21 14:01:00,84.0,68.0,29.90,ESE,111,0.0,4.0,58,0.00,,,0.00,,2013-07-21 19:01:00,
2013-07-21 14:22:00,84.0,70.0,29.90,SE,140,0.0,1.0,63,0.00,,,0.00,,2013-07-21 19:22:00,
2013-07-21 14:32:00,85.0,70.0,29.90,ESE,116,0.0,3.0,60,0.00,,,0.00,,2013-07-21 19:32:00,
2013-07-21 14:42:00,86.0,70.0,29.90,ESE,116,0.0,2.0,59,0.00,,,0.00,,2013-07-21 19:42:00,
2013-07-21 14:52:00,86.0,70.0,29.90,ESE,116,0.0,2.0,60,0.00,,,0.00,,2013-07-21 19:52:00,
2013-07-21 15:01:00,86.0,69.0,29.89,ESE,116,0.0,1.0,58,0.00,,,0.00,,2013-07-21 20:01:00,
2013-07-21 15:11:00,86.0,69.0,29.89,ESE,115,0.0,3.0,58,0.00,,,0.00,,2013-07-21 20:11:00,
2013-07-21 15:22:00,85.0,70.0,29.89,SSW,205,0.0,1.0,60,0.00,,,0.00,,2013-07-21 20:22:00,
2013-07-21 15:32:00,85.0,70.0,29.88,WNW,301,0.0,2.0,62,0.00,,,0.00,,2013-07-21 20:32:00,
2013-07-21 15:42:00,85.0,70.0,29.88,SE,132,1.0,3.0,61,0.00,,,0.00,,2013-07-21 20:42:00,
2013-07-21 15:52:00,85.0,70.0,29.88,ESE,111,0.0,2.0,62,0.00,,,0.00,,2013-07-21 20:52:00,
2013-07-21 16:01:00,84.0,70.0,29.88,ESE,111,0.0,1.0,62,0.00,,,0.00,,2013-07-21 21:01:00,
2013-07-21 16:11:00,83.0,70.0,29.86,ESE,111,0.0,1.0,64,0.00,,,0.00,,2013-07-21 21:11:00,
2013-07-21 16:22:00,83.0,70.0,29.86,ESE,114,0.0,4.0,65,0.00,,,0.00,,2013-07-21 21:22:00,
2013-07-21 16:32:00,83.0,70.0,29.86,SSW,201,0.0,3.0,65,0.00,,,0.00,,2013-07-21 21:32:00,
2013-07-21 16:43:00,82.0,69.0,29.86,ESE,111,0.0,2.0,66,0.00,,,0.00,,2013-07-21 21:43:00,
2013-07-21 16:52:00,82.0,69.0,29.85,SE,136,0.0,3.0,66,0.00,,,0.00,,2013-07-21 21:52:00,
2013-07-21 17:01:00,82.0,70.0,29.85,North,355,0.0,1.0,67,0.00,,,0.00,,2013-07-21 22:01:00,
2013-07-21 17:11:00,82.0,70.0,29.85,West,281,0.0,4.0,68,0.00,,,0.00,,2013-07-21 22:11:00,
2013-07-21 17:22:00,81.0,69.0,29.85,WSW,249,0.0,2.0,68,0.00,,,0.00,,2013-07-21 22:22:00,
2013-07-21 17:32:00,81.0,70.0,29.84,NW,314,0.0,3.0,70,0.00,,,0.00,,2013-07-21 22:32:00,
2013-07-21 17:43:00,81.0,70.0,29.84,SSE,152,0.0,3.0,70,0.00,,,0.00,,2013-07-21 22:43:00,
2013-07-21 17:52:00,81.0,71.0,29.84,North,360,0.0,2.0,71,0.00,,,0.00,,2013-07-21 22:52:00,
2013-07-21 18:01:00,81.0,71.0,29.83,NW,304,0.0,5.0,71,0.00,,,0.00,,2013-07-21 23:01:00,
2013-07-21 18:11:00,80.0,70.0,29.83,NW,304,0.0,1.0,71,0.00,,,0.00,,2013-07-21 23:11:00,
2013-07-21 18:22:00,80.0,71.0,29.83,WNW,300,0.0,1.0,73,0.00,,,0.00,,2013-07-21 23:22:00,
2013-07-21 18:32:00,80.0,70.0,29.83,WNW,298,0.0,1.0,72,0.00,,,0.00,,2013-07-21 23:32:00,
2013-07-21 18:42:00,79.0,69.0,29.83,West,266,1.0,5.0,72,0.00,,,0.00,,2013-07-21 23:42:00,
2013-07-21 18:52:00,79.0,70.0,29.83,ESE,120,0.0,2.0,73,0.00,,,0.00,,2013-07-21 23:52:00,
2013-07-21 19:01:00,79.0,70.0,29.83,NW,305,1.0,6.0,73,0.00,,,0.00,,2013-07-22 00:01:00,
2013-07-21 19:11:00,78.0,67.0,29.83,South,175,1.0,4.0,70,0.00,,,0.00,,2013-07-22 00:11:00,
2013-07-21 19:22:00,78.0,66.0,29.84,WNW,297,1.0,5.0,67,0.00,,,0.00,,2013-07-22 00:22:00,
2013-07-21 19:32:00,77.0,65.0,29.85,NW,306,2.0,5.0,67,0.00,,,0.00,,2013-07-22 00:32:00,
2013-07-21 19:52:00,76.0,64.0,29.85,WNW,287,0.0,1.0,67,0.00,,,0.00,,2013-07-22 00:52:00,
2013-07-21 20:11:00,75.0,63.0,29.85,WNW,287,0.0,1.0,67,0.00,,,0.00,,2013-07-22 01:11:00,
2013-07-21 20:22:00,75.0,64.0,29.85,WNW,287,0.0,0.0,68,0.00,,,0.00,,2013-07-22 01:22:00,
2013-07-21 20:32:00,74.0,64.0,29.86,WNW,287,0.0,0.0,70,0.00,,,0.00,,2013-07-22 01:32:00,
2013-07-21 20:42:00,74.0,64.0,29.85,WNW,287,0.0,0.0,71,0.00,,,0.00,,2013-07-22 01:42:00,
2013-07-21 20:52:00,74.0,65.0,29.85,WNW,287,0.0,0.0,73,0.00,,,0.00,,2013-07-22 01:52:00,
2013-07-21 21:02:00,73.0,65.0,29.86,WNW,287,0.0,0.0,76,0.00,,,0.00,,2013-07-22 02:02:00,
2013-07-21 21:22:00,72.0,64.0,29.85,WNW,287,0.0,0.0,76,0.00,,,0.00,,2013-07-22 02:22:00,
2013-07-21 21:32:00,72.0,64.0,29.85,WNW,287,0.0,0.0,77,0.00,,,0.00,,2013-07-22 02:32:00,
2013-07-21 21:43:00,72.0,65.0,29.86,WNW,287,0.0,0.0,78,0.00,,,0.00,,2013-07-22 02:43:00,
2013-07-21 21:52:00,72.0,65.0,29.86,WNW,287,0.0,0.0,78,0.00,,,0.00,,2013-07-22 02:52:00,
2013-07-21 22:01:00,71.0,64.0,29.86,WNW,287,0.0,0.0,78,0.00,,,0.00,,2013-07-22 03:01:00,
2013-07-21 22:12:00,71.0,65.0,29.86,WNW,287,0.0,0.0,80,0.00,,,0.00,,2013-07-22 03:12:00,
2013-07-21 22:22:00,70.0,64.0,29.86,WNW,287,0.0,0.0,81,0.00,,,0.00,,2013-07-22 03:22:00,
2013-07-21 22:33:00,70.0,64.0,29.87,WNW,287,0.0,0.0,81,0.00,,,0.00,,2013-07-22 03:33:00,
2013-07-21 22:43:00,70.0,64.0,29.86,WNW,287,0.0,0.0,81,0.00,,,0.00,,2013-07-22 03:43:00,
2013-07-21 22:53:00,70.0,64.0,29.87,WNW,287,0.0,0.0,82,0.00,,,0.00,,2013-07-22 03:53:00,
2013-07-21 23:01:00,69.0,63.0,29.87,WNW,287,0.0,0.0,82,0.00,,,0.00,,2013-07-22 04:01:00,
2013-07-21 23:12:00,69.0,64.0,29.87,WNW,287,0.0,0.0,83,0.00,,,0.00,,2013-07-22 04:12:00,
2013-07-21 23:22:00,69.0,64.0,29.87,WNW,287,0.0,0.0,83,0.00,,,0.00,,2013-07-22 04:22:00,
2013-07-21 23:33:00,68.0,63.0,29.87,WNW,287,0.0,0.0,84,0.00,,,0.00,,2013-07-22 04:33:00,
2013-07-21 23:43:00,68.0,63.0,29.88,WNW,287,0.0,0.0,84,0.00,,,0.00,,2013-07-22 04:43:00,